Manchester International Airport

Airport
ICAO code: 
EGCC
IATA Code: 
MAN
Summary
ICAO Region: 
EUR
Territory: 
Location: 
Ringway, Manchester, England,
Serving: 
Manchester
Coordinates: 
Aerial View: 
53° 21' 31.606" N, 2° 16' 26.795" W
Metar
Observation
EGCC 081020Z 25022KT 9999 -RA SCT014CB BKN020 06/04 Q0981
Station
Manchester Airport
Date/Time
2021-12-08 10:20:00
Wind direction
250°
Wind speed
22 kts
Lowest cloud amount
scattered clouds
Temperature
6°C
Dew point
4°C
Humidity
86%
QNH
981 hPa
Weather condition
light rain

Description

International airport serving Greater Manchester and the north-west region of England; has a co-located railway station with frequent services to many northern England destinations. Trades commercially as "Manchester International Airport"

Climatology

Temperate Marine climate/Oceanic climate (Köppen climate classification Cfb). Moderately cool summer and comparatively warm winter with a temperature range of only 14°C. Prevailing south-westerly winds from the Atlantic Ocean.

Runways

Designator Length Width Surface Rops
05R/23L 3047 46 CON Yes/Yes
05L/23R 3048 46 ASP Yes/Yes

SKYbrary Partners:

Safety knowledge contributed by: